ROKJ(METAR)
05/21 19:00
ROKJ 211000Z 02014KT 9999 FEW014 BKNXXX 24/21 Q1007 RMK A2974=
戻る
トップページへ戻る
IMOC Co,.Ltd.